sensor_id;sensor_type;location;lat;lon;timestamp;pressure;altitude;pressure_sealevel;temperature;humidity
29879;BME280;16752;53.364;-1.488;2022-07-03T00:01:00;100487.16;;;21.37;40.15
29879;BME280;16752;53.364;-1.488;2022-07-03T00:03:26;100488.13;;;21.44;39.54
29879;BME280;16752;53.364;-1.488;2022-07-03T00:05:51;100489.13;;;21.51;39.22
29879;BME280;16752;53.364;-1.488;2022-07-03T00:08:17;100484.78;;;21.58;39.15
29879;BME280;16752;53.364;-1.488;2022-07-03T00:10:42;100488.94;;;21.60;38.95
29879;BME280;16752;53.364;-1.488;2022-07-03T00:13:08;100493.63;;;21.58;39.39
29879;BME280;16752;53.364;-1.488;2022-07-03T00:15:33;100490.94;;;21.66;39.15
29879;BME280;16752;53.364;-1.488;2022-07-03T00:17:59;100490.75;;;21.68;38.75
29879;BME280;16752;53.364;-1.488;2022-07-03T00:20:24;100492.09;;;21.64;38.70
29879;BME280;16752;53.364;-1.488;2022-07-03T00:22:54;100497.59;;;21.62;38.99
29879;BME280;16752;53.364;-1.488;2022-07-03T00:25:21;100495.44;;;21.58;39.27
29879;BME280;16752;53.364;-1.488;2022-07-03T00:27:46;100493.31;;;21.53;39.12
29879;BME280;16752;53.364;-1.488;2022-07-03T00:30:14;100499.81;;;21.51;39.79
29879;BME280;16752;53.364;-1.488;2022-07-03T00:32:41;100489.47;;;21.48;39.45
29879;BME280;16752;53.364;-1.488;2022-07-03T00:35:07;100495.47;;;21.42;39.61
29879;BME280;16752;53.364;-1.488;2022-07-03T00:37:33;100497.47;;;21.31;39.56
29879;BME280;16752;53.364;-1.488;2022-07-03T00:39:59;100503.31;;;21.27;39.68
29879;BME280;16752;53.364;-1.488;2022-07-03T00:42:25;100498.59;;;21.21;39.86
29879;BME280;16752;53.364;-1.488;2022-07-03T00:44:56;100498.94;;;21.18;40.10
29879;BME280;16752;53.364;-1.488;2022-07-03T00:47:23;100498.44;;;21.14;40.14
29879;BME280;16752;53.364;-1.488;2022-07-03T00:49:50;100500.78;;;21.09;40.09
29879;BME280;16752;53.364;-1.488;2022-07-03T00:52:16;100501.41;;;21.03;40.03
29879;BME280;16752;53.364;-1.488;2022-07-03T00:54:43;100493.75;;;21.00;40.17
29879;BME280;16752;53.364;-1.488;2022-07-03T00:57:12;100490.44;;;20.98;40.17
29879;BME280;16752;53.364;-1.488;2022-07-03T00:59:38;100487.75;;;20.98;40.26
29879;BME280;16752;53.364;-1.488;2022-07-03T01:02:05;100489.44;;;20.99;40.49
29879;BME280;16752;53.364;-1.488;2022-07-03T01:04:41;100490.25;;;20.99;40.32
29879;BME280;16752;53.364;-1.488;2022-07-03T01:07:16;100496.75;;;20.97;40.49
29879;BME280;16752;53.364;-1.488;2022-07-03T01:15:12;100493.25;;;20.96;40.54
29879;BME280;16752;53.364;-1.488;2022-07-03T01:17:43;100494.09;;;20.89;40.29
29879;BME280;16752;53.364;-1.488;2022-07-03T01:20:12;100499.25;;;20.82;40.29
29879;BME280;16752;53.364;-1.488;2022-07-03T01:22:43;100494.22;;;20.79;40.47
29879;BME280;16752;53.364;-1.488;2022-07-03T01:27:35;100501.88;;;20.74;40.28
29879;BME280;16752;53.364;-1.488;2022-07-03T01:30:06;100495.03;;;20.71;40.40
29879;BME280;16752;53.364;-1.488;2022-07-03T01:32:33;100498.72;;;20.70;40.63
29879;BME280;16752;53.364;-1.488;2022-07-03T01:35:01;100501.72;;;20.75;40.88
29879;BME280;16752;53.364;-1.488;2022-07-03T01:37:27;100500.38;;;20.80;40.57
29879;BME280;16752;53.364;-1.488;2022-07-03T01:39:57;100492.75;;;20.85;40.66
29879;BME280;16752;53.364;-1.488;2022-07-03T01:42:23;100496.25;;;20.85;40.42
29879;BME280;16752;53.364;-1.488;2022-07-03T01:44:49;100487.09;;;20.88;40.48
29879;BME280;16752;53.364;-1.488;2022-07-03T01:47:16;100496.75;;;20.89;40.60
29879;BME280;16752;53.364;-1.488;2022-07-03T01:49:42;100488.44;;;20.92;40.85
29879;BME280;16752;53.364;-1.488;2022-07-03T01:52:10;100489.09;;;20.94;40.75
29879;BME280;16752;53.364;-1.488;2022-07-03T01:54:35;100493.41;;;20.95;40.71
29879;BME280;16752;53.364;-1.488;2022-07-03T01:57:03;100489.09;;;20.94;40.55
29879;BME280;16752;53.364;-1.488;2022-07-03T01:59:30;100489.94;;;20.94;40.84
29879;BME280;16752;53.364;-1.488;2022-07-03T02:04:44;100483.78;;;20.86;40.85
29879;BME280;16752;53.364;-1.488;2022-07-03T02:07:21;100485.44;;;20.87;40.70
29879;BME280;16752;53.364;-1.488;2022-07-03T02:10:25;100485.94;;;20.90;40.63
29879;BME280;16752;53.364;-1.488;2022-07-03T02:12:52;100483.44;;;20.89;40.52
29879;BME280;16752;53.364;-1.488;2022-07-03T02:15:20;100484.09;;;20.83;40.80
29879;BME280;16752;53.364;-1.488;2022-07-03T02:17:50;100492.38;;;20.80;40.89
29879;BME280;16752;53.364;-1.488;2022-07-03T02:20:20;100480.41;;;20.75;40.67
29879;BME280;16752;53.364;-1.488;2022-07-03T02:22:51;100479.06;;;20.71;40.70
29879;BME280;16752;53.364;-1.488;2022-07-03T02:25:26;100479.41;;;20.68;40.73
29879;BME280;16752;53.364;-1.488;2022-07-03T02:27:55;100475.41;;;20.64;40.68
29879;BME280;16752;53.364;-1.488;2022-07-03T02:30:24;100483.84;;;20.60;41.00
29879;BME280;16752;53.364;-1.488;2022-07-03T02:32:52;100476.38;;;20.55;40.71
29879;BME280;16752;53.364;-1.488;2022-07-03T02:35:21;100476.69;;;20.52;41.00
29879;BME280;16752;53.364;-1.488;2022-07-03T02:37:56;100477.03;;;20.49;40.93
29879;BME280;16752;53.364;-1.488;2022-07-03T02:40:37;100484.50;;;20.46;41.03
29879;BME280;16752;53.364;-1.488;2022-07-03T02:46:02;100485.25;;;20.38;41.03
29879;BME280;16752;53.364;-1.488;2022-07-03T02:48:50;100484.91;;;20.33;41.02
29879;BME280;16752;53.364;-1.488;2022-07-03T02:51:18;100491.22;;;20.32;41.08
29879;BME280;16752;53.364;-1.488;2022-07-03T02:53:51;100491.88;;;20.26;41.12
29879;BME280;16752;53.364;-1.488;2022-07-03T02:56:35;100490.53;;;20.22;41.16
29879;BME280;16752;53.364;-1.488;2022-07-03T02:59:11;100487.22;;;20.20;41.25
29879;BME280;16752;53.364;-1.488;2022-07-03T03:01:57;100493.69;;;20.17;41.41
29879;BME280;16752;53.364;-1.488;2022-07-03T03:04:30;100480.38;;;20.17;41.31
29879;BME280;16752;53.364;-1.488;2022-07-03T03:09:32;100484.16;;;20.14;41.30
29879;BME280;16752;53.364;-1.488;2022-07-03T03:12:00;100486.16;;;20.12;41.38
29879;BME280;16752;53.364;-1.488;2022-07-03T03:14:27;100488.16;;;20.10;41.56
29879;BME280;16752;53.364;-1.488;2022-07-03T03:16:59;100479.00;;;20.13;41.90
29879;BME280;16752;53.364;-1.488;2022-07-03T03:19:27;100486.16;;;20.12;41.54
29879;BME280;16752;53.364;-1.488;2022-07-03T03:24:18;100491.16;;;20.15;41.73
29879;BME280;16752;53.364;-1.488;2022-07-03T03:26:43;100487.50;;;20.17;41.79
29879;BME280;16752;53.364;-1.488;2022-07-03T03:29:09;100491.38;;;20.22;41.77
29879;BME280;16752;53.364;-1.488;2022-07-03T03:31:35;100497.88;;;20.28;41.61
29879;BME280;16752;53.364;-1.488;2022-07-03T03:34:01;100497.88;;;20.36;41.74
29879;BME280;16752;53.364;-1.488;2022-07-03T03:36:28;100491.16;;;20.41;41.54
29879;BME280;16752;53.364;-1.488;2022-07-03T03:38:54;100502.28;;;20.45;41.58
29879;BME280;16752;53.364;-1.488;2022-07-03T03:41:19;100498.31;;;20.49;41.44
29879;BME280;16752;53.364;-1.488;2022-07-03T03:43:45;100492.66;;;20.52;41.42
29879;BME280;16752;53.364;-1.488;2022-07-03T03:46:10;100496.66;;;20.56;41.13
29879;BME280;16752;53.364;-1.488;2022-07-03T03:48:36;100499.69;;;20.61;41.27
29879;BME280;16752;53.364;-1.488;2022-07-03T03:51:02;100500.69;;;20.68;41.54
29879;BME280;16752;53.364;-1.488;2022-07-03T03:53:30;100499.38;;;20.72;41.59
29879;BME280;16752;53.364;-1.488;2022-07-03T03:55:59;100500.72;;;20.77;41.26
29879;BME280;16752;53.364;-1.488;2022-07-03T03:58:26;100501.91;;;20.82;41.26
29879;BME280;16752;53.364;-1.488;2022-07-03T04:00:55;100505.75;;;20.88;41.30
29879;BME280;16752;53.364;-1.488;2022-07-03T04:03:21;100498.41;;;20.90;41.24
29879;BME280;16752;53.364;-1.488;2022-07-03T04:05:46;100501.25;;;20.96;40.87
29879;BME280;16752;53.364;-1.488;2022-07-03T04:08:12;100501.41;;;21.03;40.83
29879;BME280;16752;53.364;-1.488;2022-07-03T04:10:38;100506.09;;;21.09;40.90
29879;BME280;16752;53.364;-1.488;2022-07-03T04:13:04;100505.44;;;21.15;40.98
29879;BME280;16752;53.364;-1.488;2022-07-03T04:15:29;100512.75;;;21.21;41.05
29879;BME280;16752;53.364;-1.488;2022-07-03T04:17:55;100508.31;;;21.30;40.97
29879;BME280;16752;53.364;-1.488;2022-07-03T04:20:20;100512.47;;;21.32;40.86
29879;BME280;16752;53.364;-1.488;2022-07-03T04:22:46;100515.47;;;21.38;40.78
29879;BME280;16752;53.364;-1.488;2022-07-03T04:25:14;100516.44;;;21.45;40.83
29879;BME280;16752;53.364;-1.488;2022-07-03T04:27:39;100514.44;;;21.47;40.75
29879;BME280;16752;53.364;-1.488;2022-07-03T04:30:05;100519.47;;;21.50;41.04
29879;BME280;16752;53.364;-1.488;2022-07-03T04:32:35;100515.47;;;21.54;40.97
29879;BME280;16752;53.364;-1.488;2022-07-03T04:35:01;100526.28;;;21.60;40.73
29879;BME280;16752;53.364;-1.488;2022-07-03T04:37:27;100527.25;;;21.67;40.90
29879;BME280;16752;53.364;-1.488;2022-07-03T04:39:52;100525.78;;;21.73;40.66
29879;BME280;16752;53.364;-1.488;2022-07-03T04:42:18;100526.91;;;21.79;40.88
29879;BME280;16752;53.364;-1.488;2022-07-03T04:44:43;100531.56;;;21.85;40.47
29879;BME280;16752;53.364;-1.488;2022-07-03T04:47:09;100528.25;;;21.91;40.55
29879;BME280;16752;53.364;-1.488;2022-07-03T04:49:34;100532.72;;;21.99;40.74
29879;BME280;16752;53.364;-1.488;2022-07-03T04:52:05;100522.53;;;22.02;40.68
29879;BME280;16752;53.364;-1.488;2022-07-03T04:54:31;100526.19;;;22.09;40.60
29879;BME280;16752;53.364;-1.488;2022-07-03T04:56:57;100525.03;;;22.12;40.16
29879;BME280;16752;53.364;-1.488;2022-07-03T04:59:23;100530.88;;;22.15;40.17
29879;BME280;16752;53.364;-1.488;2022-07-03T05:01:48;100530.00;;;22.23;40.10
29879;BME280;16752;53.364;-1.488;2022-07-03T05:04:15;100534.13;;;22.34;40.01
29879;BME280;16752;53.364;-1.488;2022-07-03T05:06:40;100544.78;;;22.42;40.19
29879;BME280;16752;53.364;-1.488;2022-07-03T05:09:06;100542.59;;;22.45;39.75
29879;BME280;16752;53.364;-1.488;2022-07-03T05:11:32;100551.56;;;22.52;39.99
29879;BME280;16752;53.364;-1.488;2022-07-03T05:13:58;100545.88;;;22.55;39.81
29879;BME280;16752;53.364;-1.488;2022-07-03T05:16:23;100540.88;;;22.61;40.04
29879;BME280;16752;53.364;-1.488;2022-07-03T05:18:49;100544.66;;;22.66;40.02
29879;BME280;16752;53.364;-1.488;2022-07-03T05:21:14;100541.13;;;22.74;39.77
29879;BME280;16752;53.364;-1.488;2022-07-03T05:23:40;100542.44;;;22.78;39.94
29879;BME280;16752;53.364;-1.488;2022-07-03T05:26:05;100548.97;;;22.83;39.94
29879;BME280;16752;53.364;-1.488;2022-07-03T05:28:31;100546.59;;;22.89;39.58
29879;BME280;16752;53.364;-1.488;2022-07-03T05:30:56;100546.03;;;22.93;39.26
29879;BME280;16752;53.364;-1.488;2022-07-03T05:33:22;100545.56;;;22.90;38.06
29879;BME280;16752;53.364;-1.488;2022-07-03T05:35:48;100546.41;;;22.90;38.34
29879;BME280;16752;53.364;-1.488;2022-07-03T05:38:13;100549.53;;;23.02;38.73
29879;BME280;16752;53.364;-1.488;2022-07-03T05:41:01;100556.63;;;23.09;38.66
29879;BME280;16752;53.364;-1.488;2022-07-03T05:43:27;100545.59;;;23.12;38.37
29879;BME280;16752;53.364;-1.488;2022-07-03T05:45:52;100562.56;;;23.20;38.16
29879;BME280;16752;53.364;-1.488;2022-07-03T05:48:18;100555.69;;;23.25;37.97
29879;BME280;16752;53.364;-1.488;2022-07-03T05:50:44;100560.78;;;23.35;37.52
29879;BME280;16752;53.364;-1.488;2022-07-03T05:53:09;100563.06;;;23.46;38.08
29879;BME280;16752;53.364;-1.488;2022-07-03T05:55:34;100562.50;;;23.51;37.79
29879;BME280;16752;53.364;-1.488;2022-07-03T05:58:00;100563.16;;;23.53;37.63
29879;BME280;16752;53.364;-1.488;2022-07-03T06:00:25;100563.31;;;23.59;37.86
29879;BME280;16752;53.364;-1.488;2022-07-03T06:02:51;100572.34;;;23.58;37.37
29879;BME280;16752;53.364;-1.488;2022-07-03T06:05:17;100577.50;;;23.60;37.03
29879;BME280;16752;53.364;-1.488;2022-07-03T06:07:45;100559.09;;;23.65;37.11
29879;BME280;16752;53.364;-1.488;2022-07-03T06:10:17;100554.41;;;23.67;36.67
29879;BME280;16752;53.364;-1.488;2022-07-03T06:12:48;100552.38;;;23.69;37.40
29879;BME280;16752;53.364;-1.488;2022-07-03T06:15:14;100552.56;;;23.67;37.41
29879;BME280;16752;53.364;-1.488;2022-07-03T06:17:41;100558.38;;;23.71;37.07
29879;BME280;16752;53.364;-1.488;2022-07-03T06:20:09;100562.78;;;23.78;37.53
29879;BME280;16752;53.364;-1.488;2022-07-03T06:22:35;100567.41;;;23.85;37.32
29879;BME280;16752;53.364;-1.488;2022-07-03T06:25:03;100568.56;;;23.90;37.29
29879;BME280;16752;53.364;-1.488;2022-07-03T06:27:29;100572.16;;;23.97;36.87
29879;BME280;16752;53.364;-1.488;2022-07-03T06:29:54;100570.56;;;24.03;37.17
29879;BME280;16752;53.364;-1.488;2022-07-03T06:32:20;100566.81;;;24.12;36.84
29879;BME280;16752;53.364;-1.488;2022-07-03T06:34:45;100562.84;;;24.08;36.89
29879;BME280;16752;53.364;-1.488;2022-07-03T06:37:32;100568.09;;;24.16;36.53
29879;BME280;16752;53.364;-1.488;2022-07-03T06:40:03;100570.66;;;24.32;36.28
29879;BME280;16752;53.364;-1.488;2022-07-03T06:42:38;100567.75;;;24.49;36.22
29879;BME280;16752;53.364;-1.488;2022-07-03T06:45:04;100566.00;;;24.56;36.30
29879;BME280;16752;53.364;-1.488;2022-07-03T06:56:16;100567.03;;;24.55;36.84
29879;BME280;16752;53.364;-1.488;2022-07-03T06:58:41;100577.44;;;24.50;36.65
29879;BME280;16752;53.364;-1.488;2022-07-03T07:01:07;100582.25;;;24.40;37.07
29879;BME280;16752;53.364;-1.488;2022-07-03T07:03:32;100586.56;;;24.26;37.10
29879;BME280;16752;53.364;-1.488;2022-07-03T07:06:01;100589.78;;;24.21;37.13
29879;BME280;16752;53.364;-1.488;2022-07-03T07:08:29;100591.28;;;24.09;37.75
29879;BME280;16752;53.364;-1.488;2022-07-03T07:10:55;100582.75;;;24.05;37.68
29879;BME280;16752;53.364;-1.488;2022-07-03T07:13:23;100586.00;;;24.01;37.50
29879;BME280;16752;53.364;-1.488;2022-07-03T07:15:48;100584.16;;;24.01;37.72
29879;BME280;16752;53.364;-1.488;2022-07-03T07:18:29;100584.97;;;24.02;37.87
29879;BME280;16752;53.364;-1.488;2022-07-03T07:23:44;100591.53;;;23.99;38.13
29879;BME280;16752;53.364;-1.488;2022-07-03T07:26:21;100588.13;;;24.05;37.78
29879;BME280;16752;53.364;-1.488;2022-07-03T07:28:49;100581.94;;;24.20;37.78
29879;BME280;16752;53.364;-1.488;2022-07-03T07:31:15;100581.53;;;24.31;37.85
29879;BME280;16752;53.364;-1.488;2022-07-03T07:33:41;100579.84;;;24.45;37.27
29879;BME280;16752;53.364;-1.488;2022-07-03T07:36:06;100584.19;;;24.46;37.35
29879;BME280;16752;53.364;-1.488;2022-07-03T07:38:33;100587.50;;;24.48;37.33
29879;BME280;16752;53.364;-1.488;2022-07-03T07:40:58;100593.50;;;24.50;37.01
29879;BME280;16752;53.364;-1.488;2022-07-03T07:43:36;100592.78;;;24.56;37.02
29879;BME280;16752;53.364;-1.488;2022-07-03T07:46:12;100597.69;;;24.52;37.09
29879;BME280;16752;53.364;-1.488;2022-07-03T07:48:40;100592.41;;;24.59;36.59
29879;BME280;16752;53.364;-1.488;2022-07-03T07:51:13;100589.09;;;24.57;36.76
29879;BME280;16752;53.364;-1.488;2022-07-03T07:53:39;100598.88;;;24.64;36.52
29879;BME280;16752;53.364;-1.488;2022-07-03T07:56:05;100607.66;;;24.73;36.38
29879;BME280;16752;53.364;-1.488;2022-07-03T07:58:36;100599.03;;;24.78;37.15
29879;BME280;16752;53.364;-1.488;2022-07-03T08:01:16;100596.63;;;24.83;36.94
29879;BME280;16752;53.364;-1.488;2022-07-03T08:04:01;100602.56;;;24.78;37.09
29879;BME280;16752;53.364;-1.488;2022-07-03T08:06:51;100600.31;;;24.82;36.65
29879;BME280;16752;53.364;-1.488;2022-07-03T08:24:04;100595.34;;;25.72;36.16
29879;BME280;16752;53.364;-1.488;2022-07-03T08:26:47;100598.69;;;25.81;35.65
29879;BME280;16752;53.364;-1.488;2022-07-03T08:29:18;100598.97;;;25.86;35.08
29879;BME280;16752;53.364;-1.488;2022-07-03T08:31:50;100597.50;;;25.83;35.42
29879;BME280;16752;53.364;-1.488;2022-07-03T08:34:27;100606.38;;;25.84;35.01
29879;BME280;16752;53.364;-1.488;2022-07-03T08:37:00;100610.22;;;25.75;35.70
29879;BME280;16752;53.364;-1.488;2022-07-03T08:39:28;100617.59;;;25.94;35.44
29879;BME280;16752;53.364;-1.488;2022-07-03T08:42:05;100616.06;;;26.06;35.12
29879;BME280;16752;53.364;-1.488;2022-07-03T08:44:43;100608.44;;;26.10;34.67
29879;BME280;16752;53.364;-1.488;2022-07-03T08:49:49;100609.28;;;26.17;34.17
29879;BME280;16752;53.364;-1.488;2022-07-03T08:52:18;100614.28;;;26.20;34.34
29879;BME280;16752;53.364;-1.488;2022-07-03T08:57:39;100629.50;;;26.34;34.36
29879;BME280;16752;53.364;-1.488;2022-07-03T09:00:09;100626.44;;;26.44;34.41
29879;BME280;16752;53.364;-1.488;2022-07-03T09:02:40;100625.66;;;26.50;34.07
29879;BME280;16752;53.364;-1.488;2022-07-03T09:05:09;100631.44;;;26.47;34.04
29879;BME280;16752;53.364;-1.488;2022-07-03T09:07:41;100631.19;;;26.42;33.81
29879;BME280;16752;53.364;-1.488;2022-07-03T09:21:54;100632.69;;;26.51;32.56
29879;BME280;16752;53.364;-1.488;2022-07-03T09:24:22;100642.88;;;26.62;32.86
29879;BME280;16752;53.364;-1.488;2022-07-03T09:26:50;100637.34;;;26.70;32.61
29879;BME280;16752;53.364;-1.488;2022-07-03T09:29:16;100640.88;;;26.71;32.76
29879;BME280;16752;53.364;-1.488;2022-07-03T09:31:41;100645.97;;;26.66;32.96
29879;BME280;16752;53.364;-1.488;2022-07-03T09:34:22;100644.31;;;26.65;32.89
29879;BME280;16752;53.364;-1.488;2022-07-03T10:08:12;100656.31;;;27.64;31.18
29879;BME280;16752;53.364;-1.488;2022-07-03T10:10:47;100655.88;;;27.61;31.87
29879;BME280;16752;53.364;-1.488;2022-07-03T10:13:15;100669.34;;;27.61;31.82
29879;BME280;16752;53.364;-1.488;2022-07-03T10:18:44;100669.22;;;27.15;31.83
29879;BME280;16752;53.364;-1.488;2022-07-03T10:22:00;100671.72;;;26.82;31.85
29879;BME280;16752;53.364;-1.488;2022-07-03T10:27:50;100673.59;;;26.46;32.32
29879;BME280;16752;53.364;-1.488;2022-07-03T10:30:22;100675.69;;;26.51;32.25
29879;BME280;16752;53.364;-1.488;2022-07-03T10:33:38;100674.91;;;26.64;31.86
29879;BME280;16752;53.364;-1.488;2022-07-03T10:36:09;100678.91;;;26.68;31.63
29879;BME280;16752;53.364;-1.488;2022-07-03T10:48:01;100689.97;;;27.34;30.88
29879;BME280;16752;53.364;-1.488;2022-07-03T10:53:31;100687.41;;;27.93;30.43
29879;BME280;16752;53.364;-1.488;2022-07-03T11:07:12;100689.41;;;28.77;29.61
29879;BME280;16752;53.364;-1.488;2022-07-03T11:15:44;100683.47;;;29.90;26.95
29879;BME280;16752;53.364;-1.488;2022-07-03T11:21:49;100680.16;;;30.19;26.18
29879;BME280;16752;53.364;-1.488;2022-07-03T11:42:54;100680.94;;;30.88;25.58
29879;BME280;16752;53.364;-1.488;2022-07-03T11:49:20;100678.41;;;31.23;23.59
29879;BME280;16752;53.364;-1.488;2022-07-03T11:52:48;100673.88;;;30.68;23.76
29879;BME280;16752;53.364;-1.488;2022-07-03T12:07:14;100676.66;;;30.12;24.21
29879;BME280;16752;53.364;-1.488;2022-07-03T12:18:09;100680.00;;;29.83;25.32
29879;BME280;16752;53.364;-1.488;2022-07-03T12:23:57;100684.63;;;29.75;26.20
29879;BME280;16752;53.364;-1.488;2022-07-03T12:26:45;100680.78;;;29.90;25.83
29879;BME280;16752;53.364;-1.488;2022-07-03T12:32:26;100695.44;;;30.07;25.84
29879;BME280;16752;53.364;-1.488;2022-07-03T12:34:53;100685.06;;;30.04;24.77
29879;BME280;16752;53.364;-1.488;2022-07-03T13:56:31;100707.16;;;30.69;23.86
29879;BME280;16752;53.364;-1.488;2022-07-03T13:59:06;100718.25;;;30.79;23.62
29879;BME280;16752;53.364;-1.488;2022-07-03T14:15:25;100717.41;;;30.60;24.47
29879;BME280;16752;53.364;-1.488;2022-07-03T14:40:23;100730.22;;;30.47;24.50
29879;BME280;16752;53.364;-1.488;2022-07-03T15:09:20;100723.47;;;30.37;24.31
29879;BME280;16752;53.364;-1.488;2022-07-03T15:21:15;100741.69;;;29.86;24.49
29879;BME280;16752;53.364;-1.488;2022-07-03T15:23:41;100741.22;;;29.95;25.37
29879;BME280;16752;53.364;-1.488;2022-07-03T15:29:37;100737.06;;;29.93;24.44
29879;BME280;16752;53.364;-1.488;2022-07-03T15:32:12;100743.53;;;30.23;24.68
29879;BME280;16752;53.364;-1.488;2022-07-03T15:52:35;100730.53;;;39.80;13.87
29879;BME280;16752;53.364;-1.488;2022-07-03T16:06:32;100733.38;;;36.60;16.14
29879;BME280;16752;53.364;-1.488;2022-07-03T16:15:09;100738.47;;;35.55;18.17
29879;BME280;16752;53.364;-1.488;2022-07-03T16:29:10;100740.63;;;35.80;16.81
29879;BME280;16752;53.364;-1.488;2022-07-03T21:13:29;100853.16;;;23.66;32.40
29879;BME280;16752;53.364;-1.488;2022-07-03T21:21:58;100860.19;;;23.51;32.61
29879;BME280;16752;53.364;-1.488;2022-07-03T21:30:32;100864.22;;;23.39;33.43
29879;BME280;16752;53.364;-1.488;2022-07-03T22:10:32;100870.31;;;22.60;35.92
29879;BME280;16752;53.364;-1.488;2022-07-03T22:13:31;100872.34;;;22.58;35.75
29879;BME280;16752;53.364;-1.488;2022-07-03T22:16:12;100868.31;;;22.53;36.02
29879;BME280;16752;53.364;-1.488;2022-07-03T22:19:01;100876.66;;;22.50;36.04
29879;BME280;16752;53.364;-1.488;2022-07-03T22:21:49;100871.63;;;22.47;36.06
29879;BME280;16752;53.364;-1.488;2022-07-03T22:55:06;100859.25;;;22.22;36.35
29879;BME280;16752;53.364;-1.488;2022-07-03T22:57:46;100852.75;;;22.24;36.52
29879;BME280;16752;53.364;-1.488;2022-07-03T23:00:41;100847.25;;;22.18;36.80
29879;BME280;16752;53.364;-1.488;2022-07-03T23:58:23;100831.34;;;21.50;39.10
